Time;durP1;ratioP1;P1;durP2;ratioP2;P2;SDS_P1;SDS_P2;PMS_P1;PMS_P2;Temp;Humidity;BMP_temperature;BMP_pressure;BME280_temperature;BME280_humidity;BME280_pressure;Samples;Min_cycle;Max_cycle;Signal;HPM_P1;HPM_P2
2023/01/01 00:01:44;;;;;;;32.95;19.60;;;;;;;;;;5093064;28;20063;-75
2023/01/01 00:04:31;;;;;;;32.85;19.85;;;;;;;;;;5093447;28;20077;-75
2023/01/01 00:07:17;;;;;;;29.98;18.60;;;;;;;;;;5093332;28;20020;-74
2023/01/01 00:13:20;;;;;;;26.40;17.40;;;;;;;;;;5053265;28;20043;-75
2023/01/01 00:16:08;;;;;;;27.60;16.92;;;;;;;;;;5079441;28;20016;-74
2023/01/01 00:18:53;;;;;;;29.27;16.80;;;;;;;;;;5093480;28;20020;-74
2023/01/01 00:21:39;;;;;;;28.23;17.60;;;;;;;;;;5093603;28;20036;-73
2023/01/01 00:24:25;;;;;;;27.65;16.52;;;;;;;;;;5092694;28;20404;-75
2023/01/01 00:27:10;;;;;;;24.55;16.25;;;;;;;;;;5092866;28;20058;-75
2023/01/01 00:29:56;;;;;;;26.00;17.17;;;;;;;;;;5092994;28;20028;-74
2023/01/01 00:32:41;;;;;;;27.17;16.17;;;;;;;;;;5093225;28;20081;-74
2023/01/01 00:35:27;;;;;;;23.73;15.75;;;;;;;;;;5093458;28;20117;-74
2023/01/01 00:38:13;;;;;;;26.17;15.48;;;;;;;;;;5092506;28;20072;-75
2023/01/01 00:40:58;;;;;;;23.42;14.95;;;;;;;;;;5092793;28;20016;-75
2023/01/01 00:43:44;;;;;;;23.45;15.40;;;;;;;;;;5092590;28;20063;-75
2023/01/01 00:46:30;;;;;;;23.58;14.70;;;;;;;;;;5079252;28;20326;-73
2023/01/01 00:49:15;;;;;;;22.42;14.20;;;;;;;;;;5078453;28;20024;-74
2023/01/01 00:52:01;;;;;;;23.35;14.30;;;;;;;;;;5091940;28;20034;-74
2023/01/01 00:54:46;;;;;;;20.98;14.02;;;;;;;;;;5078237;28;20016;-75
2023/01/01 00:57:32;;;;;;;25.23;15.18;;;;;;;;;;5079159;28;20016;-75
2023/01/01 01:00:19;;;;;;;24.08;15.13;;;;;;;;;;5092017;28;20081;-75
2023/01/01 01:03:04;;;;;;;23.73;14.35;;;;;;;;;;5093294;28;20062;-74
2023/01/01 01:05:50;;;;;;;21.98;14.43;;;;;;;;;;5092142;28;20039;-75
2023/01/01 01:08:36;;;;;;;20.90;13.63;;;;;;;;;;5092491;28;20031;-75
2023/01/01 01:11:23;;;;;;;21.17;13.88;;;;;;;;;;5079092;28;20038;-74
2023/01/01 01:14:08;;;;;;;23.92;14.05;;;;;;;;;;5079300;28;20020;-72
2023/01/01 01:16:54;;;;;;;21.60;13.60;;;;;;;;;;5078932;28;20073;-74
2023/01/01 01:19:40;;;;;;;18.98;13.23;;;;;;;;;;5092452;28;20039;-75
2023/01/01 01:22:25;;;;;;;22.45;14.25;;;;;;;;;;5078660;28;20379;-74
2023/01/01 01:25:11;;;;;;;21.52;13.90;;;;;;;;;;5079698;28;20024;-75
2023/01/01 01:27:56;;;;;;;23.30;14.27;;;;;;;;;;5085053;28;20052;-74
2023/01/01 01:30:42;;;;;;;25.90;14.30;;;;;;;;;;5100284;28;20024;-74
2023/01/01 01:33:28;;;;;;;22.38;14.00;;;;;;;;;;5093857;28;20028;-74
2023/01/01 01:36:14;;;;;;;23.35;14.20;;;;;;;;;;5100023;28;20023;-74
2023/01/01 01:39:00;;;;;;;21.48;13.80;;;;;;;;;;5099210;28;20016;-75
2023/01/01 01:41:45;;;;;;;21.50;14.48;;;;;;;;;;5086065;28;20035;-75
2023/01/01 01:44:43;;;;;;;22.73;14.05;;;;;;;;;;5085953;28;20077;-75
2023/01/01 01:47:55;;;;;;;22.52;15.40;;;;;;;;;;5096804;28;20020;-74
2023/01/01 01:50:42;;;;;;;23.17;15.05;;;;;;;;;;5093242;28;20077;-74
2023/01/01 01:53:32;;;;;;;21.98;13.93;;;;;;;;;;5096234;28;20032;-75
2023/01/01 01:56:20;;;;;;;22.48;14.63;;;;;;;;;;5095058;28;20081;-73
2023/01/01 01:59:06;;;;;;;20.75;14.10;;;;;;;;;;5108338;28;20044;-74
2023/01/01 02:01:51;;;;;;;22.25;14.50;;;;;;;;;;5094375;28;20050;-73
2023/01/01 02:04:37;;;;;;;22.10;13.90;;;;;;;;;;5103141;28;20093;-75
2023/01/01 02:07:24;;;;;;;23.90;13.65;;;;;;;;;;5116812;28;20016;-75
2023/01/01 02:10:10;;;;;;;21.98;13.70;;;;;;;;;;5117305;28;20076;-74
2023/01/01 02:12:55;;;;;;;19.55;13.30;;;;;;;;;;5117336;28;20024;-74
2023/01/01 02:16:01;;;;;;;23.25;13.95;;;;;;;;;;5104491;28;20046;-74
2023/01/01 02:19:11;;;;;;;26.15;17.23;;;;;;;;;;5117978;28;20020;-74
2023/01/01 02:22:12;;;;;;;33.28;18.08;;;;;;;;;;5118233;28;20016;-75
2023/01/01 02:25:06;;;;;;;26.42;16.60;;;;;;;;;;5117092;28;20016;-74
2023/01/01 02:28:11;;;;;;;26.77;15.50;;;;;;;;;;5117131;28;20012;-73
2023/01/01 02:30:56;;;;;;;28.60;15.57;;;;;;;;;;5104530;28;20089;-74
2023/01/01 02:33:43;;;;;;;28.25;17.10;;;;;;;;;;5104890;28;20047;-75
2023/01/01 02:36:30;;;;;;;30.60;18.77;;;;;;;;;;5116798;28;20012;-75
2023/01/01 02:39:18;;;;;;;27.77;17.65;;;;;;;;;;5103668;28;20040;-74
2023/01/01 02:42:04;;;;;;;28.98;17.73;;;;;;;;;;5117212;28;20051;-73
2023/01/01 02:44:52;;;;;;;28.40;17.02;;;;;;;;;;5117727;28;20101;-75
2023/01/01 02:47:38;;;;;;;30.80;17.63;;;;;;;;;;5099740;28;20084;-74
2023/01/01 02:50:26;;;;;;;31.33;16.95;;;;;;;;;;5104141;28;20016;-74
2023/01/01 02:53:20;;;;;;;27.92;15.98;;;;;;;;;;5116420;28;20012;-73
2023/01/01 02:56:24;;;;;;;26.58;16.52;;;;;;;;;;5116827;28;20000;-75
2023/01/01 03:02:32;;;;;;;26.20;16.58;;;;;;;;;;5096236;28;20058;-74
2023/01/01 03:05:21;;;;;;;27.15;16.40;;;;;;;;;;5095737;28;20027;-75
2023/01/01 03:08:06;;;;;;;27.52;16.30;;;;;;;;;;5095212;28;20055;-74
2023/01/01 03:11:12;;;;;;;24.80;15.50;;;;;;;;;;5081136;28;20020;-75
2023/01/01 03:14:01;;;;;;;26.63;16.13;;;;;;;;;;5081178;28;20058;-75
2023/01/01 03:16:55;;;;;;;24.98;15.68;;;;;;;;;;5096468;28;20099;-75
2023/01/01 03:19:41;;;;;;;26.80;16.73;;;;;;;;;;5095448;28;20016;-75
2023/01/01 03:22:31;;;;;;;28.02;17.20;;;;;;;;;;5080873;28;20083;-75
2023/01/01 03:25:20;;;;;;;26.33;16.90;;;;;;;;;;5094966;28;20085;-75
2023/01/01 03:28:11;;;;;;;28.88;16.55;;;;;;;;;;5101775;28;20016;-75
2023/01/01 03:30:58;;;;;;;25.98;16.80;;;;;;;;;;5094877;28;20020;-74
2023/01/01 03:33:46;;;;;;;26.23;16.42;;;;;;;;;;5087623;28;20016;-75
2023/01/01 03:36:37;;;;;;;25.27;15.50;;;;;;;;;;5096053;28;20016;-73
2023/01/01 03:39:43;;;;;;;25.58;16.10;;;;;;;;;;5099149;28;20020;-77
2023/01/01 03:42:37;;;;;;;22.67;14.68;;;;;;;;;;5099438;28;20016;-73
2023/01/01 03:45:28;;;;;;;23.42;15.38;;;;;;;;;;5101460;28;20008;-73
2023/01/01 03:48:13;;;;;;;25.58;15.43;;;;;;;;;;5117077;28;20034;-74
2023/01/01 03:51:12;;;;;;;24.45;14.95;;;;;;;;;;5113130;28;20020;-74
2023/01/01 03:54:00;;;;;;;24.98;15.48;;;;;;;;;;5082926;28;20034;-74
2023/01/01 03:56:50;;;;;;;26.30;15.65;;;;;;;;;;5110650;28;20020;-74
2023/01/01 03:59:42;;;;;;;24.25;15.27;;;;;;;;;;5106525;28;20020;-73
2023/01/01 04:02:33;;;;;;;23.13;15.23;;;;;;;;;;5100113;28;20048;-74
2023/01/01 04:05:18;;;;;;;23.38;14.75;;;;;;;;;;5102277;28;20020;-74
2023/01/01 04:08:04;;;;;;;24.25;14.70;;;;;;;;;;5093851;28;20062;-75
2023/01/01 04:10:52;;;;;;;25.38;15.00;;;;;;;;;;5075469;28;20095;-75
2023/01/01 04:13:47;;;;;;;22.25;14.38;;;;;;;;;;5113540;28;20069;-74
2023/01/01 04:16:32;;;;;;;22.67;14.15;;;;;;;;;;5114866;28;20014;-73
2023/01/01 04:19:18;;;;;;;22.63;14.48;;;;;;;;;;5116506;28;20012;-74
2023/01/01 04:22:04;;;;;;;23.20;14.30;;;;;;;;;;5114556;28;20020;-75
2023/01/01 04:24:49;;;;;;;24.65;14.70;;;;;;;;;;5112311;28;20080;-74
2023/01/01 04:27:35;;;;;;;21.38;14.32;;;;;;;;;;5113738;28;20004;-74
2023/01/01 04:30:21;;;;;;;22.90;14.40;;;;;;;;;;5113164;28;20020;-75
2023/01/01 04:33:07;;;;;;;23.00;14.07;;;;;;;;;;5101526;28;20028;-74
2023/01/01 04:35:52;;;;;;;25.13;15.70;;;;;;;;;;5096918;28;20042;-74
2023/01/01 04:38:38;;;;;;;23.38;14.57;;;;;;;;;;5094055;28;20431;-75
2023/01/01 04:41:23;;;;;;;24.73;14.77;;;;;;;;;;5094058;28;20335;-75
2023/01/01 04:44:09;;;;;;;21.33;14.48;;;;;;;;;;5093792;28;20027;-75
2023/01/01 04:46:54;;;;;;;22.58;13.43;;;;;;;;;;5093510;28;20358;-74
2023/01/01 04:49:40;;;;;;;20.40;13.50;;;;;;;;;;5092888;28;20023;-75
2023/01/01 04:52:26;;;;;;;23.23;13.25;;;;;;;;;;5093589;28;20024;-75
2023/01/01 04:55:11;;;;;;;21.13;13.55;;;;;;;;;;5078598;28;20449;-75
2023/01/01 04:57:57;;;;;;;19.13;12.80;;;;;;;;;;5093449;28;20024;-74
2023/01/01 05:00:42;;;;;;;21.15;12.93;;;;;;;;;;5078515;28;20366;-75
2023/01/01 05:03:28;;;;;;;18.58;12.55;;;;;;;;;;5093577;28;20024;-75
2023/01/01 05:06:14;;;;;;;21.95;13.85;;;;;;;;;;5092416;28;20055;-74
2023/01/01 05:09:02;;;;;;;21.73;13.45;;;;;;;;;;5079110;28;20023;-75
2023/01/01 05:11:48;;;;;;;22.23;13.27;;;;;;;;;;5093558;28;20040;-74
2023/01/01 05:14:33;;;;;;;20.33;13.38;;;;;;;;;;5092836;28;20024;-74
2023/01/01 05:17:19;;;;;;;22.20;13.50;;;;;;;;;;5092267;28;20323;-74
2023/01/01 05:20:05;;;;;;;19.85;13.32;;;;;;;;;;5096828;28;20024;-74
2023/01/01 05:22:50;;;;;;;19.92;13.48;;;;;;;;;;5090965;28;20153;-74
2023/01/01 05:25:36;;;;;;;19.85;12.63;;;;;;;;;;5086834;28;20118;-73
2023/01/01 05:28:22;;;;;;;20.90;12.98;;;;;;;;;;5097578;28;20016;-74
2023/01/01 05:31:10;;;;;;;18.60;12.27;;;;;;;;;;5082799;28;20031;-74
2023/01/01 05:33:56;;;;;;;20.70;12.02;;;;;;;;;;5084487;28;20389;-75
2023/01/01 05:36:41;;;;;;;18.08;11.52;;;;;;;;;;5083454;28;20031;-74
2023/01/01 05:39:27;;;;;;;19.92;12.00;;;;;;;;;;5087878;28;20078;-74
2023/01/01 05:42:14;;;;;;;22.90;12.15;;;;;;;;;;5104876;28;20035;-74
2023/01/01 05:44:59;;;;;;;17.50;11.88;;;;;;;;;;5105032;28;20101;-74
2023/01/01 05:47:45;;;;;;;18.27;11.88;;;;;;;;;;5096488;28;20024;-74
2023/01/01 05:50:31;;;;;;;16.52;11.02;;;;;;;;;;5081926;28;20035;-75
2023/01/01 05:53:16;;;;;;;16.92;10.90;;;;;;;;;;5088620;28;20108;-74
2023/01/01 05:56:02;;;;;;;16.77;10.68;;;;;;;;;;5102438;28;20458;-74
2023/01/01 05:58:48;;;;;;;18.17;11.63;;;;;;;;;;5089089;28;20020;-76
2023/01/01 06:01:33;;;;;;;19.27;11.57;;;;;;;;;;5097856;28;20473;-75
2023/01/01 06:04:19;;;;;;;18.00;11.60;;;;;;;;;;5097687;28;20050;-75
2023/01/01 06:07:04;;;;;;;17.30;11.00;;;;;;;;;;5082826;28;20051;-75
2023/01/01 06:09:50;;;;;;;18.25;11.90;;;;;;;;;;5082509;28;20115;-75
2023/01/01 06:12:36;;;;;;;19.17;11.88;;;;;;;;;;5095336;28;20024;-74
2023/01/01 06:15:21;;;;;;;18.95;12.20;;;;;;;;;;5096101;28;20047;-75
2023/01/01 06:18:07;;;;;;;18.65;11.48;;;;;;;;;;5096448;28;20370;-75
2023/01/01 06:20:52;;;;;;;17.13;11.05;;;;;;;;;;5110090;28;20030;-73
2023/01/01 06:23:38;;;;;;;19.38;12.80;;;;;;;;;;5082742;28;20035;-74
2023/01/01 06:26:26;;;;;;;20.27;12.43;;;;;;;;;;5096395;28;20042;-74
2023/01/01 06:29:11;;;;;;;21.17;12.20;;;;;;;;;;5094946;28;20044;-74
2023/01/01 06:31:57;;;;;;;21.45;13.10;;;;;;;;;;5081941;28;20082;-74
2023/01/01 06:34:43;;;;;;;21.58;13.27;;;;;;;;;;5095900;28;20374;-75
2023/01/01 06:37:28;;;;;;;21.00;12.20;;;;;;;;;;5082073;28;20103;-74
2023/01/01 06:40:14;;;;;;;18.80;12.73;;;;;;;;;;5095156;28;20017;-74
2023/01/01 06:42:59;;;;;;;20.08;13.43;;;;;;;;;;5095435;28;20500;-74
2023/01/01 06:45:45;;;;;;;21.55;14.10;;;;;;;;;;5080842;28;20035;-74
2023/01/01 06:48:32;;;;;;;24.08;14.18;;;;;;;;;;5095035;28;20077;-74
2023/01/01 06:51:21;;;;;;;23.85;14.07;;;;;;;;;;5081588;28;20399;-75
2023/01/01 06:54:08;;;;;;;24.42;14.65;;;;;;;;;;5081834;28;20040;-75
2023/01/01 06:56:53;;;;;;;24.02;14.40;;;;;;;;;;5081135;28;20016;-74
2023/01/01 06:59:39;;;;;;;22.90;14.73;;;;;;;;;;5094668;28;20077;-75
2023/01/01 07:02:24;;;;;;;21.60;14.02;;;;;;;;;;5093679;28;20371;-75
2023/01/01 07:05:10;;;;;;;18.02;12.75;;;;;;;;;;5081281;28;20136;-74
2023/01/01 07:07:56;;;;;;;20.35;13.48;;;;;;;;;;5094376;28;20016;-74
2023/01/01 07:10:41;;;;;;;21.30;12.90;;;;;;;;;;5094709;28;20031;-74
2023/01/01 07:13:27;;;;;;;19.70;13.30;;;;;;;;;;5094694;28;20024;-75
2023/01/01 07:16:13;;;;;;;19.50;13.05;;;;;;;;;;5095946;28;20027;-75
2023/01/01 07:19:00;;;;;;;20.85;13.88;;;;;;;;;;5094485;28;20495;-75
2023/01/01 07:21:50;;;;;;;24.10;14.65;;;;;;;;;;5095275;28;20452;-75
2023/01/01 07:24:37;;;;;;;22.98;14.00;;;;;;;;;;5094661;28;20028;-75
2023/01/01 07:27:23;;;;;;;22.95;15.00;;;;;;;;;;5080834;28;20031;-74
2023/01/01 07:30:09;;;;;;;21.13;14.20;;;;;;;;;;5081182;28;20491;-73
2023/01/01 07:32:55;;;;;;;23.60;12.95;;;;;;;;;;5094871;28;20035;-74
2023/01/01 07:35:40;;;;;;;19.00;12.70;;;;;;;;;;5080980;28;20055;-74
2023/01/01 07:38:26;;;;;;;20.40;12.90;;;;;;;;;;5093782;28;20027;-75
2023/01/01 07:41:11;;;;;;;18.60;11.82;;;;;;;;;;5093583;28;20090;-74
2023/01/01 07:43:57;;;;;;;19.33;12.07;;;;;;;;;;5080477;28;20104;-74
2023/01/01 07:46:43;;;;;;;17.88;12.18;;;;;;;;;;5093291;28;20028;-74
2023/01/01 07:49:28;;;;;;;17.48;11.38;;;;;;;;;;5094965;28;20024;-74
2023/01/01 07:52:14;;;;;;;17.42;10.90;;;;;;;;;;5094976;28;20016;-74
2023/01/01 07:54:59;;;;;;;15.27;10.73;;;;;;;;;;5080096;28;20430;-75
2023/01/01 07:57:45;;;;;;;18.42;10.32;;;;;;;;;;5094270;28;20114;-74
2023/01/01 08:00:31;;;;;;;15.13;10.50;;;;;;;;;;5079422;28;20080;-74
2023/01/01 08:03:17;;;;;;;16.40;10.27;;;;;;;;;;5094108;28;20163;-74
2023/01/01 08:06:09;;;;;;;15.73;10.73;;;;;;;;;;5094368;28;20015;-74
2023/01/01 08:08:55;;;;;;;18.88;10.93;;;;;;;;;;5094443;28;20062;-74
2023/01/01 08:11:40;;;;;;;15.57;10.23;;;;;;;;;;5079613;28;20020;-75
2023/01/01 08:14:26;;;;;;;22.83;12.77;;;;;;;;;;5079974;28;20461;-75
2023/01/01 08:17:11;;;;;;;20.80;12.38;;;;;;;;;;5094153;28;20066;-75
2023/01/01 08:19:57;;;;;;;21.50;12.88;;;;;;;;;;5094333;28;20020;-75
2023/01/01 08:22:43;;;;;;;23.27;13.73;;;;;;;;;;5093159;28;20024;-76
2023/01/01 08:25:28;;;;;;;21.63;13.43;;;;;;;;;;5094403;28;20047;-74
2023/01/01 08:28:14;;;;;;;21.63;12.95;;;;;;;;;;5093844;28;20028;-75
2023/01/01 08:30:59;;;;;;;22.38;13.43;;;;;;;;;;5092872;28;20533;-74
2023/01/01 08:33:45;;;;;;;28.25;14.73;;;;;;;;;;5079665;28;20476;-75
2023/01/01 08:36:31;;;;;;;25.27;13.68;;;;;;;;;;5093123;28;20110;-74
2023/01/01 08:39:16;;;;;;;24.13;14.05;;;;;;;;;;5093174;28;20042;-74
2023/01/01 08:42:02;;;;;;;18.77;11.52;;;;;;;;;;5092883;28;20024;-74
2023/01/01 08:44:47;;;;;;;13.27;9.55;;;;;;;;;;5079484;28;20334;-75
2023/01/01 08:47:33;;;;;;;13.98;8.57;;;;;;;;;;5093524;28;20342;-75
2023/01/01 08:50:19;;;;;;;12.45;8.63;;;;;;;;;;5093840;28;20039;-74
2023/01/01 08:53:04;;;;;;;12.38;8.70;;;;;;;;;;5093240;28;20020;-75
2023/01/01 08:55:56;;;;;;;12.85;8.20;;;;;;;;;;5093608;28;20016;-73
2023/01/01 08:58:42;;;;;;;13.23;8.18;;;;;;;;;;5092894;28;20016;-74
2023/01/01 09:01:28;;;;;;;13.48;7.95;;;;;;;;;;5092919;28;20066;-74
2023/01/01 09:04:13;;;;;;;12.38;7.88;;;;;;;;;;5078699;28;20024;-75
2023/01/01 09:06:59;;;;;;;11.93;7.78;;;;;;;;;;5078457;28;20031;-74
2023/01/01 09:09:45;;;;;;;11.27;7.72;;;;;;;;;;5093726;28;20023;-74
2023/01/01 09:12:30;;;;;;;10.98;7.93;;;;;;;;;;5095312;28;20113;-74
2023/01/01 09:15:16;;;;;;;10.80;7.43;;;;;;;;;;5097632;28;20023;-75
2023/01/01 09:18:01;;;;;;;9.68;7.38;;;;;;;;;;5097276;28;20016;-75
2023/01/01 09:20:47;;;;;;;11.00;7.45;;;;;;;;;;5097232;28;20023;-75
2023/01/01 09:23:33;;;;;;;10.57;7.60;;;;;;;;;;5097761;28;20066;-74
2023/01/01 09:26:18;;;;;;;11.20;7.30;;;;;;;;;;5082522;28;20016;-74
2023/01/01 09:29:04;;;;;;;10.65;7.28;;;;;;;;;;5082498;28;20020;-73
2023/01/01 09:31:49;;;;;;;10.20;6.95;;;;;;;;;;5096969;28;20442;-73
2023/01/01 09:34:35;;;;;;;10.98;6.75;;;;;;;;;;5082306;28;20020;-74
2023/01/01 09:37:21;;;;;;;9.95;6.80;;;;;;;;;;5082134;28;20030;-74
2023/01/01 09:40:08;;;;;;;11.27;6.72;;;;;;;;;;5096783;28;20035;-74
2023/01/01 09:43:12;;;;;;;11.55;7.57;;;;;;;;;;5097154;28;20442;-74
2023/01/01 09:45:59;;;;;;;9.70;7.30;;;;;;;;;;5082139;28;20383;-74
2023/01/01 09:48:52;;;;;;;12.07;8.02;;;;;;;;;;5096841;28;20020;-74
2023/01/01 09:51:38;;;;;;;10.35;7.80;;;;;;;;;;5097069;28;20067;-74
2023/01/01 09:54:32;;;;;;;12.10;7.95;;;;;;;;;;5096374;28;20081;-74
2023/01/01 09:57:17;;;;;;;11.88;7.70;;;;;;;;;;5096428;28;20023;-74
2023/01/01 10:00:12;;;;;;;14.20;8.68;;;;;;;;;;5096799;28;20027;-74
2023/01/01 10:03:07;;;;;;;12.43;8.35;;;;;;;;;;5097811;28;20461;-74
2023/01/01 10:05:53;;;;;;;11.50;7.80;;;;;;;;;;5081881;28;20133;-74
2023/01/01 10:08:55;;;;;;;11.38;7.85;;;;;;;;;;5096599;28;20085;-74
2023/01/01 10:11:50;;;;;;;13.73;7.82;;;;;;;;;;5096353;28;20035;-73
2023/01/01 10:14:40;;;;;;;12.23;7.35;;;;;;;;;;5082113;28;20024;-73
2023/01/01 10:17:34;;;;;;;11.38;7.85;;;;;;;;;;5096539;28;20442;-73
2023/01/01 10:20:20;;;;;;;13.68;8.35;;;;;;;;;;5097135;28;20020;-74
2023/01/01 10:23:18;;;;;;;10.63;7.93;;;;;;;;;;5096127;28;20365;-75
2023/01/01 10:26:08;;;;;;;15.20;9.80;;;;;;;;;;5096593;28;20013;-74
2023/01/01 10:29:02;;;;;;;18.25;9.15;;;;;;;;;;5096075;28;20035;-74
2023/01/01 10:31:47;;;;;;;11.30;7.82;;;;;;;;;;5095895;28;20107;-73
2023/01/01 10:34:33;;;;;;;15.52;9.02;;;;;;;;;;5096310;28;20107;-74
2023/01/01 10:37:19;;;;;;;11.77;7.32;;;;;;;;;;5095805;28;20031;-73
2023/01/01 10:40:25;;;;;;;12.25;7.65;;;;;;;;;;5096079;28;20024;-73
2023/01/01 10:43:11;;;;;;;9.25;6.97;;;;;;;;;;5081458;28;20165;-74
2023/01/01 10:45:59;;;;;;;11.60;7.50;;;;;;;;;;5096386;28;20357;-75
2023/01/01 10:49:11;;;;;;;11.38;7.38;;;;;;;;;;5080439;28;20446;-75
2023/01/01 10:51:58;;;;;;;9.45;7.25;;;;;;;;;;5095573;28;20032;-74
2023/01/01 10:54:43;;;;;;;11.15;6.85;;;;;;;;;;5090018;28;20088;-73
2023/01/01 10:57:37;;;;;;;11.05;7.15;;;;;;;;;;5095570;28;20361;-75
2023/01/01 11:00:23;;;;;;;19.15;8.60;;;;;;;;;;5095416;28;20035;-74
2023/01/01 11:03:19;;;;;;;12.25;7.35;;;;;;;;;;5095413;28;20066;-74
2023/01/01 11:06:25;;;;;;;10.07;7.10;;;;;;;;;;5080908;28;20024;-75
2023/01/01 11:09:22;;;;;;;18.45;10.73;;;;;;;;;;5095380;28;20077;-74
2023/01/01 11:12:15;;;;;;;10.02;7.07;;;;;;;;;;5095245;28;20374;-74
2023/01/01 11:15:01;;;;;;;11.52;6.38;;;;;;;;;;5096418;28;20433;-74
2023/01/01 11:17:47;;;;;;;9.30;6.30;;;;;;;;;;5113169;28;20012;-75
2023/01/01 11:20:33;;;;;;;12.02;7.63;;;;;;;;;;5082425;28;20027;-75
2023/01/01 11:23:35;;;;;;;15.50;7.30;;;;;;;;;;5080871;28;20031;-74
2023/01/01 11:26:23;;;;;;;10.57;6.88;;;;;;;;;;5094990;28;20416;-74
2023/01/01 11:29:14;;;;;;;9.02;5.93;;;;;;;;;;5095453;28;20024;-74
2023/01/01 11:32:00;;;;;;;9.35;5.80;;;;;;;;;;5095142;28;20354;-74
2023/01/01 11:34:57;;;;;;;9.50;5.53;;;;;;;;;;5094904;28;20017;-75
2023/01/01 11:37:44;;;;;;;8.82;5.78;;;;;;;;;;5095339;28;20136;-74
2023/01/01 11:40:36;;;;;;;8.68;5.50;;;;;;;;;;5095446;28;20020;-75
2023/01/01 11:43:23;;;;;;;7.90;5.80;;;;;;;;;;5094753;28;20082;-74
2023/01/01 11:46:10;;;;;;;15.55;7.72;;;;;;;;;;5079551;28;20093;-74
2023/01/01 11:48:56;;;;;;;9.48;6.63;;;;;;;;;;5094573;28;20032;-75
2023/01/01 11:51:42;;;;;;;7.85;5.78;;;;;;;;;;5080107;28;20024;-73
2023/01/01 11:54:27;;;;;;;7.78;5.60;;;;;;;;;;5094633;28;20427;-75
2023/01/01 11:57:19;;;;;;;8.27;5.50;;;;;;;;;;5094711;28;20016;-74
2023/01/01 12:00:05;;;;;;;9.27;5.93;;;;;;;;;;5094179;28;20024;-74
2023/01/01 12:02:57;;;;;;;9.45;5.60;;;;;;;;;;5079570;28;20051;-76
2023/01/01 12:05:51;;;;;;;8.57;5.72;;;;;;;;;;5094687;28;20020;-74
2023/01/01 12:08:45;;;;;;;7.22;5.47;;;;;;;;;;5094166;28;20036;-75
2023/01/01 12:11:31;;;;;;;8.30;5.85;;;;;;;;;;5094011;28;20024;-74
2023/01/01 12:14:24;;;;;;;12.10;5.45;;;;;;;;;;5095136;28;20019;-74
2023/01/01 12:17:15;;;;;;;6.95;4.95;;;;;;;;;;5079929;28;20066;-74
2023/01/01 12:20:07;;;;;;;10.43;5.90;;;;;;;;;;5094550;28;20039;-74
2023/01/01 12:22:56;;;;;;;9.30;6.28;;;;;;;;;;5079379;28;20472;-74
2023/01/01 12:25:44;;;;;;;8.27;5.32;;;;;;;;;;5094241;28;20038;-75
2023/01/01 12:28:40;;;;;;;7.68;5.28;;;;;;;;;;5078418;28;20027;-73
2023/01/01 12:31:45;;;;;;;9.13;5.60;;;;;;;;;;5094514;28;20055;-75
2023/01/01 12:34:44;;;;;;;7.80;5.10;;;;;;;;;;5090056;28;20030;-74
2023/01/01 12:37:41;;;;;;;20.38;11.13;;;;;;;;;;5094188;28;20031;-75
2023/01/01 12:40:26;;;;;;;22.08;11.40;;;;;;;;;;5093580;28;20020;-74
2023/01/01 12:43:15;;;;;;;40.97;20.60;;;;;;;;;;5092741;28;20020;-74
2023/01/01 12:46:19;;;;;;;17.38;10.93;;;;;;;;;;5092876;28;20020;-75
2023/01/01 12:49:23;;;;;;;11.63;6.50;;;;;;;;;;5094053;28;20024;-74
2023/01/01 12:52:09;;;;;;;8.45;6.50;;;;;;;;;;5094525;28;20039;-75
2023/01/01 12:55:24;;;;;;;10.65;7.25;;;;;;;;;;5094235;28;20024;-74
2023/01/01 12:58:12;;;;;;;9.55;6.60;;;;;;;;;;5086093;28;20049;-74
2023/01/01 13:00:59;;;;;;;10.73;6.97;;;;;;;;;;5093580;28;20347;-75
2023/01/01 13:03:47;;;;;;;11.10;6.68;;;;;;;;;;5093507;28;20051;-74
2023/01/01 13:06:37;;;;;;;12.23;7.18;;;;;;;;;;5079143;28;20408;-74
2023/01/01 13:09:25;;;;;;;9.20;6.45;;;;;;;;;;5079941;28;20020;-73
2023/01/01 13:12:12;;;;;;;11.65;6.65;;;;;;;;;;5079768;28;20020;-74
2023/01/01 13:14:57;;;;;;;11.07;6.70;;;;;;;;;;5094631;28;20085;-74
2023/01/01 13:17:50;;;;;;;11.98;7.07;;;;;;;;;;5079365;28;20023;-74
2023/01/01 13:20:38;;;;;;;13.57;6.10;;;;;;;;;;5093284;28;20351;-75
2023/01/01 13:23:30;;;;;;;9.50;6.13;;;;;;;;;;5093889;28;20457;-75
2023/01/01 13:26:16;;;;;;;10.10;6.90;;;;;;;;;;5078619;28;20032;-75
2023/01/01 13:29:04;;;;;;;12.77;7.10;;;;;;;;;;5078940;28;20438;-74
2023/01/01 13:31:59;;;;;;;10.13;6.32;;;;;;;;;;5079367;28;20024;-74
2023/01/01 13:35:01;;;;;;;10.63;6.72;;;;;;;;;;5093576;28;20032;-75
2023/01/01 13:37:47;;;;;;;8.75;6.65;;;;;;;;;;5078817;28;20332;-74
2023/01/01 13:40:47;;;;;;;10.68;6.47;;;;;;;;;;5078138;28;20396;-75
2023/01/01 13:43:32;;;;;;;10.35;6.35;;;;;;;;;;5078369;28;20099;-72
2023/01/01 13:46:21;;;;;;;12.80;7.22;;;;;;;;;;5092944;28;20020;-74
2023/01/01 13:49:10;;;;;;;12.73;6.70;;;;;;;;;;5078103;28;20107;-74
2023/01/01 13:52:14;;;;;;;9.57;6.53;;;;;;;;;;5093544;28;20106;-73
2023/01/01 13:55:02;;;;;;;13.02;6.97;;;;;;;;;;5077380;28;20048;-74
2023/01/01 13:57:51;;;;;;;12.93;7.63;;;;;;;;;;5078282;28;20024;-73
2023/01/01 14:01:03;;;;;;;10.48;6.63;;;;;;;;;;5080863;28;20115;-73
2023/01/01 14:03:52;;;;;;;12.13;6.43;;;;;;;;;;5071810;28;20028;-73
2023/01/01 14:06:39;;;;;;;9.82;6.30;;;;;;;;;;5096803;28;20355;-74
2023/01/01 14:09:25;;;;;;;10.10;7.15;;;;;;;;;;5081995;28;20074;-73
2023/01/01 14:12:17;;;;;;;9.70;7.15;;;;;;;;;;5095993;28;20024;-74
2023/01/01 14:15:12;;;;;;;11.07;7.55;;;;;;;;;;5096259;28;20103;-74
2023/01/01 14:18:00;;;;;;;11.45;7.93;;;;;;;;;;5082019;28;20401;-74
2023/01/01 14:20:47;;;;;;;14.18;7.90;;;;;;;;;;5094367;28;20020;-74
2023/01/01 14:23:38;;;;;;;12.63;8.75;;;;;;;;;;5081473;28;20008;-74
2023/01/01 14:26:25;;;;;;;14.98;8.25;;;;;;;;;;5080786;28;20020;-73
2023/01/01 14:29:19;;;;;;;18.85;10.57;;;;;;;;;;5080825;28;20353;-74
2023/01/01 14:32:13;;;;;;;17.25;11.90;;;;;;;;;;5080837;28;20433;-75
2023/01/01 14:35:00;;;;;;;16.70;11.93;;;;;;;;;;5094921;28;20012;-74
2023/01/01 14:37:46;;;;;;;24.70;13.70;;;;;;;;;;5081677;28;20107;-74
2023/01/01 14:40:32;;;;;;;24.65;15.40;;;;;;;;;;5081035;28;20012;-75
2023/01/01 14:43:17;;;;;;;34.83;16.70;;;;;;;;;;5080992;28;20020;-74
2023/01/01 14:46:04;;;;;;;39.85;18.48;;;;;;;;;;5080936;28;20335;-76
2023/01/01 14:48:51;;;;;;;42.53;20.17;;;;;;;;;;5094771;28;20507;-75
2023/01/01 14:51:40;;;;;;;41.95;19.38;;;;;;;;;;5095804;28;20374;-74
2023/01/01 14:54:29;;;;;;;39.63;19.52;;;;;;;;;;5095668;28;20031;-74
2023/01/01 14:57:34;;;;;;;45.90;21.30;;;;;;;;;;5095528;28;20031;-76
2023/01/01 15:00:21;;;;;;;34.20;17.98;;;;;;;;;;5094337;28;20025;-75
2023/01/01 15:03:11;;;;;;;35.25;18.15;;;;;;;;;;5095182;28;20097;-74
2023/01/01 15:06:01;;;;;;;43.40;20.00;;;;;;;;;;5081000;28;20142;-74
2023/01/01 15:08:50;;;;;;;47.20;21.20;;;;;;;;;;5095399;28;20016;-73
2023/01/01 15:11:35;;;;;;;47.17;21.13;;;;;;;;;;5095925;28;20023;-74
2023/01/01 15:14:32;;;;;;;44.83;21.00;;;;;;;;;;5096220;28;20020;-73
2023/01/01 15:17:19;;;;;;;40.67;21.83;;;;;;;;;;5080856;28;20050;-75
2023/01/01 15:20:06;;;;;;;38.40;21.30;;;;;;;;;;5096000;28;20089;-75
2023/01/01 15:22:52;;;;;;;37.17;19.90;;;;;;;;;;5094646;28;20042;-74
2023/01/01 15:25:40;;;;;;;36.60;20.38;;;;;;;;;;5094130;28;20413;-74
2023/01/01 15:28:26;;;;;;;34.25;19.80;;;;;;;;;;5080463;28;20171;-74
2023/01/01 15:31:12;;;;;;;35.97;20.00;;;;;;;;;;5079644;28;20024;-74
2023/01/01 15:33:57;;;;;;;35.83;20.70;;;;;;;;;;5093999;28;20023;-74
2023/01/01 15:36:43;;;;;;;37.75;20.42;;;;;;;;;;5094459;28;20024;-74
2023/01/01 15:39:29;;;;;;;38.55;21.33;;;;;;;;;;5099439;28;20008;-73
2023/01/01 15:42:21;;;;;;;31.40;20.02;;;;;;;;;;5109361;28;20031;-72
2023/01/01 15:45:12;;;;;;;39.38;21.48;;;;;;;;;;5099634;28;20016;-74
2023/01/01 15:48:04;;;;;;;34.80;20.42;;;;;;;;;;5094358;28;20171;-74
2023/01/01 15:50:49;;;;;;;35.83;20.73;;;;;;;;;;5079964;28;20452;-74
2023/01/01 15:53:44;;;;;;;33.67;20.42;;;;;;;;;;5094807;28;20024;-74
2023/01/01 15:56:31;;;;;;;36.38;21.13;;;;;;;;;;5080018;28;20361;-74
2023/01/01 15:59:28;;;;;;;36.30;21.05;;;;;;;;;;5094240;28;20397;-75
2023/01/01 16:02:29;;;;;;;37.55;22.50;;;;;;;;;;5093206;28;20486;-74
2023/01/01 16:05:17;;;;;;;39.58;22.88;;;;;;;;;;5093954;28;20499;-74
2023/01/01 16:08:03;;;;;;;45.30;24.58;;;;;;;;;;5080087;28;20077;-74
2023/01/01 16:10:50;;;;;;;54.80;26.48;;;;;;;;;;5093711;28;20070;-75
2023/01/01 16:13:35;;;;;;;46.58;26.05;;;;;;;;;;5093398;28;20031;-74
2023/01/01 16:16:26;;;;;;;47.20;26.60;;;;;;;;;;5079651;28;20046;-74
2023/01/01 16:19:15;;;;;;;64.47;29.83;;;;;;;;;;5079062;28;20016;-73
2023/01/01 16:22:01;;;;;;;64.07;32.97;;;;;;;;;;5092487;28;20024;-75
2023/01/01 16:24:46;;;;;;;54.95;32.25;;;;;;;;;;5092862;28;20115;-74
2023/01/01 16:27:32;;;;;;;63.97;33.28;;;;;;;;;;5093741;28;20039;-75
2023/01/01 16:30:17;;;;;;;59.42;31.42;;;;;;;;;;5093385;28;20083;-74
2023/01/01 16:33:04;;;;;;;62.15;35.97;;;;;;;;;;5092739;28;20157;-74
2023/01/01 16:35:49;;;;;;;72.50;38.00;;;;;;;;;;5093521;28;20361;-74